sensor_id;sensor_type;location;lat;lon;timestamp;P1;durP1;ratioP1;P2;durP2;ratioP2
38089;SDS011;23904;52.322;10.232;2023-09-18T00:01:57;8.23;;;4.72;;
38089;SDS011;23904;52.322;10.232;2023-09-18T00:04:23;6.40;;;4.85;;
38089;SDS011;23904;52.322;10.232;2023-09-18T00:06:48;10.38;;;4.80;;
38089;SDS011;23904;52.322;10.232;2023-09-18T00:09:14;8.75;;;5.03;;
38089;SDS011;23904;52.322;10.232;2023-09-18T00:11:39;8.77;;;5.18;;
38089;SDS011;23904;52.322;10.232;2023-09-18T00:14:05;5.53;;;4.43;;
38089;SDS011;23904;52.322;10.232;2023-09-18T00:16:35;5.18;;;4.55;;
38089;SDS011;23904;52.322;10.232;2023-09-18T00:19:00;6.50;;;4.70;;
38089;SDS011;23904;52.322;10.232;2023-09-18T00:21:27;6.60;;;4.13;;
38089;SDS011;23904;52.322;10.232;2023-09-18T00:23:55;8.80;;;4.63;;
38089;SDS011;23904;52.322;10.232;2023-09-18T00:26:25;5.97;;;4.85;;
38089;SDS011;23904;52.322;10.232;2023-09-18T00:28:51;7.53;;;4.78;;
38089;SDS011;23904;52.322;10.232;2023-09-18T00:31:16;6.43;;;4.57;;
38089;SDS011;23904;52.322;10.232;2023-09-18T00:33:42;6.43;;;4.60;;
38089;SDS011;23904;52.322;10.232;2023-09-18T00:36:07;8.18;;;5.20;;
38089;SDS011;23904;52.322;10.232;2023-09-18T00:38:33;7.97;;;5.88;;
38089;SDS011;23904;52.322;10.232;2023-09-18T00:40:59;10.27;;;4.93;;
38089;SDS011;23904;52.322;10.232;2023-09-18T00:43:24;10.07;;;4.80;;
38089;SDS011;23904;52.322;10.232;2023-09-18T00:45:50;7.13;;;4.88;;
38089;SDS011;23904;52.322;10.232;2023-09-18T00:48:15;9.07;;;4.68;;
38089;SDS011;23904;52.322;10.232;2023-09-18T00:50:45;5.15;;;4.07;;
38089;SDS011;23904;52.322;10.232;2023-09-18T00:53:13;5.10;;;4.03;;
38089;SDS011;23904;52.322;10.232;2023-09-18T00:55:44;6.73;;;4.87;;
38089;SDS011;23904;52.322;10.232;2023-09-18T00:58:09;7.18;;;4.40;;
38089;SDS011;23904;52.322;10.232;2023-09-18T01:00:35;7.72;;;4.85;;
38089;SDS011;23904;52.322;10.232;2023-09-18T01:03:01;6.63;;;4.88;;
38089;SDS011;23904;52.322;10.232;2023-09-18T01:05:33;5.22;;;4.50;;
38089;SDS011;23904;52.322;10.232;2023-09-18T01:07:59;8.98;;;4.95;;
38089;SDS011;23904;52.322;10.232;2023-09-18T01:10:26;7.20;;;4.88;;
38089;SDS011;23904;52.322;10.232;2023-09-18T01:13:10;8.80;;;4.90;;
38089;SDS011;23904;52.322;10.232;2023-09-18T01:15:58;6.38;;;4.95;;
38089;SDS011;23904;52.322;10.232;2023-09-18T01:18:33;9.15;;;4.60;;
38089;SDS011;23904;52.322;10.232;2023-09-18T01:20:59;7.55;;;4.90;;
38089;SDS011;23904;52.322;10.232;2023-09-18T01:23:24;6.57;;;4.80;;
38089;SDS011;23904;52.322;10.232;2023-09-18T01:25:50;7.28;;;4.57;;
38089;SDS011;23904;52.322;10.232;2023-09-18T01:28:16;6.80;;;4.88;;
38089;SDS011;23904;52.322;10.232;2023-09-18T01:30:41;6.30;;;4.80;;
38089;SDS011;23904;52.322;10.232;2023-09-18T01:33:07;8.27;;;5.13;;
38089;SDS011;23904;52.322;10.232;2023-09-18T01:35:34;6.68;;;4.60;;
38089;SDS011;23904;52.322;10.232;2023-09-18T01:38:00;6.28;;;4.93;;
38089;SDS011;23904;52.322;10.232;2023-09-18T01:40:25;7.05;;;5.28;;
38089;SDS011;23904;52.322;10.232;2023-09-18T01:42:52;8.73;;;4.97;;
38089;SDS011;23904;52.322;10.232;2023-09-18T01:45:18;7.40;;;4.22;;
38089;SDS011;23904;52.322;10.232;2023-09-18T01:47:44;7.07;;;4.93;;
38089;SDS011;23904;52.322;10.232;2023-09-18T01:50:11;6.50;;;5.03;;
38089;SDS011;23904;52.322;10.232;2023-09-18T01:52:37;6.72;;;5.38;;
38089;SDS011;23904;52.322;10.232;2023-09-18T01:55:02;6.90;;;5.45;;
38089;SDS011;23904;52.322;10.232;2023-09-18T01:57:32;5.95;;;5.00;;
38089;SDS011;23904;52.322;10.232;2023-09-18T01:59:58;6.80;;;5.35;;
38089;SDS011;23904;52.322;10.232;2023-09-18T02:02:24;8.48;;;5.50;;
38089;SDS011;23904;52.322;10.232;2023-09-18T02:04:49;9.93;;;5.43;;
38089;SDS011;23904;52.322;10.232;2023-09-18T02:07:15;8.48;;;5.95;;
38089;SDS011;23904;52.322;10.232;2023-09-18T02:09:41;8.73;;;5.18;;
38089;SDS011;23904;52.322;10.232;2023-09-18T02:12:06;8.38;;;5.78;;
38089;SDS011;23904;52.322;10.232;2023-09-18T02:14:32;6.10;;;5.50;;
38089;SDS011;23904;52.322;10.232;2023-09-18T02:16:58;7.72;;;6.28;;
38089;SDS011;23904;52.322;10.232;2023-09-18T02:19:24;6.32;;;5.20;;
38089;SDS011;23904;52.322;10.232;2023-09-18T02:21:51;11.35;;;6.07;;
38089;SDS011;23904;52.322;10.232;2023-09-18T02:24:17;9.95;;;5.30;;
38089;SDS011;23904;52.322;10.232;2023-09-18T02:26:44;9.65;;;5.95;;
38089;SDS011;23904;52.322;10.232;2023-09-18T02:29:10;8.48;;;5.15;;
38089;SDS011;23904;52.322;10.232;2023-09-18T02:31:37;7.05;;;5.40;;
38089;SDS011;23904;52.322;10.232;2023-09-18T02:34:03;8.38;;;6.47;;
38089;SDS011;23904;52.322;10.232;2023-09-18T02:36:29;8.98;;;6.22;;
38089;SDS011;23904;52.322;10.232;2023-09-18T02:38:55;12.57;;;6.72;;
38089;SDS011;23904;52.322;10.232;2023-09-18T02:41:20;12.00;;;6.32;;
38089;SDS011;23904;52.322;10.232;2023-09-18T02:43:46;7.25;;;6.40;;
38089;SDS011;23904;52.322;10.232;2023-09-18T02:46:11;9.32;;;5.97;;
38089;SDS011;23904;52.322;10.232;2023-09-18T02:48:37;8.98;;;6.03;;
38089;SDS011;23904;52.322;10.232;2023-09-18T02:51:03;9.85;;;6.03;;
38089;SDS011;23904;52.322;10.232;2023-09-18T02:53:29;9.18;;;6.00;;
38089;SDS011;23904;52.322;10.232;2023-09-18T02:55:55;12.43;;;6.18;;
38089;SDS011;23904;52.322;10.232;2023-09-18T02:58:23;8.15;;;6.57;;
38089;SDS011;23904;52.322;10.232;2023-09-18T03:00:51;8.93;;;6.18;;
38089;SDS011;23904;52.322;10.232;2023-09-18T03:03:18;10.43;;;6.50;;
38089;SDS011;23904;52.322;10.232;2023-09-18T03:05:44;9.05;;;6.00;;
38089;SDS011;23904;52.322;10.232;2023-09-18T03:08:10;8.85;;;6.70;;
38089;SDS011;23904;52.322;10.232;2023-09-18T03:10:39;9.73;;;6.40;;
38089;SDS011;23904;52.322;10.232;2023-09-18T03:13:10;9.05;;;6.50;;
38089;SDS011;23904;52.322;10.232;2023-09-18T03:18:05;9.40;;;7.03;;
38089;SDS011;23904;52.322;10.232;2023-09-18T03:20:32;9.25;;;6.93;;
38089;SDS011;23904;52.322;10.232;2023-09-18T03:22:59;11.48;;;7.60;;
38089;SDS011;23904;52.322;10.232;2023-09-18T03:25:26;8.13;;;6.65;;
38089;SDS011;23904;52.322;10.232;2023-09-18T03:27:53;10.38;;;6.65;;
38089;SDS011;23904;52.322;10.232;2023-09-18T03:30:21;8.10;;;6.18;;
38089;SDS011;23904;52.322;10.232;2023-09-18T03:32:51;10.25;;;7.13;;
38089;SDS011;23904;52.322;10.232;2023-09-18T03:35:17;8.27;;;6.78;;
38089;SDS011;23904;52.322;10.232;2023-09-18T03:37:44;8.98;;;6.85;;
38089;SDS011;23904;52.322;10.232;2023-09-18T03:40:11;10.25;;;7.35;;
38089;SDS011;23904;52.322;10.232;2023-09-18T03:42:37;9.60;;;7.20;;
38089;SDS011;23904;52.322;10.232;2023-09-18T03:45:05;12.40;;;6.00;;
38089;SDS011;23904;52.322;10.232;2023-09-18T03:47:34;6.35;;;5.45;;
38089;SDS011;23904;52.322;10.232;2023-09-18T03:50:09;9.98;;;7.35;;
38089;SDS011;23904;52.322;10.232;2023-09-18T03:52:37;10.32;;;6.90;;
38089;SDS011;23904;52.322;10.232;2023-09-18T03:55:04;9.77;;;6.47;;
38089;SDS011;23904;52.322;10.232;2023-09-18T03:57:30;9.77;;;6.78;;
38089;SDS011;23904;52.322;10.232;2023-09-18T03:59:56;10.40;;;6.72;;
38089;SDS011;23904;52.322;10.232;2023-09-18T04:02:24;9.68;;;6.07;;
38089;SDS011;23904;52.322;10.232;2023-09-18T04:04:51;9.15;;;6.28;;
38089;SDS011;23904;52.322;10.232;2023-09-18T04:07:18;10.27;;;6.00;;
38089;SDS011;23904;52.322;10.232;2023-09-18T04:09:44;8.23;;;6.78;;
38089;SDS011;23904;52.322;10.232;2023-09-18T04:12:10;10.15;;;7.28;;
38089;SDS011;23904;52.322;10.232;2023-09-18T04:14:37;9.68;;;6.72;;
38089;SDS011;23904;52.322;10.232;2023-09-18T04:17:03;10.45;;;7.50;;
38089;SDS011;23904;52.322;10.232;2023-09-18T04:19:28;9.80;;;7.20;;
38089;SDS011;23904;52.322;10.232;2023-09-18T04:21:55;8.30;;;7.03;;
38089;SDS011;23904;52.322;10.232;2023-09-18T04:24:20;8.48;;;6.78;;
38089;SDS011;23904;52.322;10.232;2023-09-18T04:26:48;9.57;;;6.72;;
38089;SDS011;23904;52.322;10.232;2023-09-18T04:29:15;9.77;;;7.38;;
38089;SDS011;23904;52.322;10.232;2023-09-18T04:31:43;9.18;;;7.43;;
38089;SDS011;23904;52.322;10.232;2023-09-18T04:34:09;11.68;;;8.10;;
38089;SDS011;23904;52.322;10.232;2023-09-18T04:36:35;9.00;;;7.10;;
38089;SDS011;23904;52.322;10.232;2023-09-18T04:39:02;14.25;;;8.50;;
38089;SDS011;23904;52.322;10.232;2023-09-18T04:41:29;15.00;;;8.23;;
38089;SDS011;23904;52.322;10.232;2023-09-18T04:43:55;10.48;;;7.93;;
38089;SDS011;23904;52.322;10.232;2023-09-18T04:46:21;8.68;;;7.28;;
38089;SDS011;23904;52.322;10.232;2023-09-18T04:48:48;10.10;;;7.22;;
38089;SDS011;23904;52.322;10.232;2023-09-18T04:51:14;9.15;;;7.30;;
38089;SDS011;23904;52.322;10.232;2023-09-18T04:53:40;9.77;;;6.95;;
38089;SDS011;23904;52.322;10.232;2023-09-18T04:56:06;12.68;;;8.00;;
38089;SDS011;23904;52.322;10.232;2023-09-18T04:58:31;13.23;;;8.02;;
38089;SDS011;23904;52.322;10.232;2023-09-18T05:00:58;10.80;;;7.80;;
38089;SDS011;23904;52.322;10.232;2023-09-18T05:03:25;10.50;;;7.68;;
38089;SDS011;23904;52.322;10.232;2023-09-18T05:05:52;11.98;;;7.63;;
38089;SDS011;23904;52.322;10.232;2023-09-18T05:08:17;8.88;;;6.95;;
38089;SDS011;23904;52.322;10.232;2023-09-18T05:10:44;13.10;;;7.95;;
38089;SDS011;23904;52.322;10.232;2023-09-18T05:13:10;11.73;;;8.30;;
38089;SDS011;23904;52.322;10.232;2023-09-18T05:15:36;14.98;;;8.00;;
38089;SDS011;23904;52.322;10.232;2023-09-18T05:18:02;9.57;;;7.55;;
38089;SDS011;23904;52.322;10.232;2023-09-18T05:20:29;10.10;;;7.28;;
38089;SDS011;23904;52.322;10.232;2023-09-18T05:22:56;10.88;;;7.63;;
38089;SDS011;23904;52.322;10.232;2023-09-18T05:25:23;17.67;;;7.32;;
38089;SDS011;23904;52.322;10.232;2023-09-18T05:27:50;11.13;;;7.88;;
38089;SDS011;23904;52.322;10.232;2023-09-18T05:30:24;8.45;;;6.90;;
38089;SDS011;23904;52.322;10.232;2023-09-18T05:32:59;9.93;;;7.28;;
38089;SDS011;23904;52.322;10.232;2023-09-18T05:35:40;8.35;;;7.25;;
38089;SDS011;23904;52.322;10.232;2023-09-18T05:38:08;10.40;;;7.00;;
38089;SDS011;23904;52.322;10.232;2023-09-18T05:40:36;14.48;;;8.00;;
38089;SDS011;23904;52.322;10.232;2023-09-18T05:43:01;9.57;;;7.30;;
38089;SDS011;23904;52.322;10.232;2023-09-18T05:45:27;9.57;;;7.10;;
38089;SDS011;23904;52.322;10.232;2023-09-18T05:47:54;9.95;;;7.25;;
38089;SDS011;23904;52.322;10.232;2023-09-18T05:50:26;17.17;;;7.78;;
38089;SDS011;23904;52.322;10.232;2023-09-18T05:52:54;8.30;;;6.82;;
38089;SDS011;23904;52.322;10.232;2023-09-18T05:55:22;9.32;;;7.43;;
38089;SDS011;23904;52.322;10.232;2023-09-18T05:57:48;11.45;;;7.68;;
38089;SDS011;23904;52.322;10.232;2023-09-18T06:00:14;9.20;;;6.88;;
38089;SDS011;23904;52.322;10.232;2023-09-18T06:02:42;9.10;;;7.50;;
38089;SDS011;23904;52.322;10.232;2023-09-18T06:05:09;15.98;;;9.10;;
38089;SDS011;23904;52.322;10.232;2023-09-18T06:07:38;10.43;;;8.15;;
38089;SDS011;23904;52.322;10.232;2023-09-18T06:10:03;9.65;;;7.85;;
38089;SDS011;23904;52.322;10.232;2023-09-18T06:12:30;8.95;;;7.45;;
38089;SDS011;23904;52.322;10.232;2023-09-18T06:14:55;12.27;;;7.55;;
38089;SDS011;23904;52.322;10.232;2023-09-18T06:17:21;10.73;;;7.00;;
38089;SDS011;23904;52.322;10.232;2023-09-18T06:19:47;11.93;;;7.05;;
38089;SDS011;23904;52.322;10.232;2023-09-18T06:22:13;8.35;;;6.60;;
38089;SDS011;23904;52.322;10.232;2023-09-18T06:24:39;9.57;;;7.50;;
38089;SDS011;23904;52.322;10.232;2023-09-18T06:27:05;15.18;;;8.48;;
38089;SDS011;23904;52.322;10.232;2023-09-18T06:29:31;9.82;;;7.30;;
38089;SDS011;23904;52.322;10.232;2023-09-18T06:31:58;14.63;;;7.75;;
38089;SDS011;23904;52.322;10.232;2023-09-18T06:34:24;8.90;;;6.97;;
38089;SDS011;23904;52.322;10.232;2023-09-18T06:36:50;9.88;;;6.90;;
38089;SDS011;23904;52.322;10.232;2023-09-18T06:39:16;11.38;;;6.95;;
38089;SDS011;23904;52.322;10.232;2023-09-18T06:41:42;14.70;;;6.97;;
38089;SDS011;23904;52.322;10.232;2023-09-18T06:44:07;10.48;;;7.32;;
38089;SDS011;23904;52.322;10.232;2023-09-18T06:46:34;10.63;;;6.93;;
38089;SDS011;23904;52.322;10.232;2023-09-18T06:49:00;8.32;;;6.63;;
38089;SDS011;23904;52.322;10.232;2023-09-18T06:51:26;12.15;;;7.72;;
38089;SDS011;23904;52.322;10.232;2023-09-18T06:53:54;12.10;;;6.88;;
38089;SDS011;23904;52.322;10.232;2023-09-18T06:56:22;11.60;;;7.55;;
38089;SDS011;23904;52.322;10.232;2023-09-18T06:58:51;8.55;;;6.70;;
38089;SDS011;23904;52.322;10.232;2023-09-18T07:01:17;9.15;;;6.85;;
38089;SDS011;23904;52.322;10.232;2023-09-18T07:03:44;8.45;;;5.88;;
38089;SDS011;23904;52.322;10.232;2023-09-18T07:06:12;15.25;;;7.07;;
38089;SDS011;23904;52.322;10.232;2023-09-18T07:08:40;10.80;;;6.72;;
38089;SDS011;23904;52.322;10.232;2023-09-18T07:11:05;9.90;;;6.68;;
38089;SDS011;23904;52.322;10.232;2023-09-18T07:13:31;12.52;;;6.32;;
38089;SDS011;23904;52.322;10.232;2023-09-18T07:15:56;13.02;;;7.00;;
38089;SDS011;23904;52.322;10.232;2023-09-18T07:18:22;10.23;;;7.18;;
38089;SDS011;23904;52.322;10.232;2023-09-18T07:20:47;10.23;;;6.57;;
38089;SDS011;23904;52.322;10.232;2023-09-18T07:23:13;10.40;;;6.35;;
38089;SDS011;23904;52.322;10.232;2023-09-18T07:25:39;8.85;;;6.97;;
38089;SDS011;23904;52.322;10.232;2023-09-18T07:28:05;8.30;;;6.65;;
38089;SDS011;23904;52.322;10.232;2023-09-18T07:30:32;13.52;;;6.63;;
38089;SDS011;23904;52.322;10.232;2023-09-18T07:32:59;10.05;;;6.10;;
38089;SDS011;23904;52.322;10.232;2023-09-18T07:35:25;9.95;;;6.28;;
38089;SDS011;23904;52.322;10.232;2023-09-18T07:37:51;11.27;;;7.10;;
38089;SDS011;23904;52.322;10.232;2023-09-18T07:40:17;17.30;;;8.55;;
38089;SDS011;23904;52.322;10.232;2023-09-18T07:42:42;23.10;;;13.07;;
38089;SDS011;23904;52.322;10.232;2023-09-18T07:45:11;33.20;;;16.48;;
38089;SDS011;23904;52.322;10.232;2023-09-18T07:47:37;22.05;;;12.48;;
38089;SDS011;23904;52.322;10.232;2023-09-18T07:50:03;17.77;;;9.98;;
38089;SDS011;23904;52.322;10.232;2023-09-18T07:52:29;15.52;;;8.02;;
38089;SDS011;23904;52.322;10.232;2023-09-18T07:54:56;9.07;;;5.88;;
38089;SDS011;23904;52.322;10.232;2023-09-18T07:57:25;7.55;;;6.07;;
38089;SDS011;23904;52.322;10.232;2023-09-18T07:59:56;8.52;;;5.75;;
38089;SDS011;23904;52.322;10.232;2023-09-18T08:02:32;12.88;;;7.35;;
38089;SDS011;23904;52.322;10.232;2023-09-18T08:05:00;7.03;;;5.65;;
38089;SDS011;23904;52.322;10.232;2023-09-18T08:07:26;10.93;;;6.47;;
38089;SDS011;23904;52.322;10.232;2023-09-18T08:09:53;8.13;;;5.82;;
38089;SDS011;23904;52.322;10.232;2023-09-18T08:12:19;9.73;;;5.63;;
38089;SDS011;23904;52.322;10.232;2023-09-18T08:14:44;12.60;;;6.10;;
38089;SDS011;23904;52.322;10.232;2023-09-18T08:17:10;10.52;;;5.53;;
38089;SDS011;23904;52.322;10.232;2023-09-18T08:19:35;8.63;;;6.22;;
38089;SDS011;23904;52.322;10.232;2023-09-18T08:22:02;7.65;;;5.63;;
38089;SDS011;23904;52.322;10.232;2023-09-18T08:24:30;9.13;;;5.28;;
38089;SDS011;23904;52.322;10.232;2023-09-18T08:26:56;11.27;;;6.00;;
38089;SDS011;23904;52.322;10.232;2023-09-18T08:29:22;10.25;;;5.93;;
38089;SDS011;23904;52.322;10.232;2023-09-18T08:31:48;11.20;;;5.88;;
38089;SDS011;23904;52.322;10.232;2023-09-18T08:34:15;9.13;;;4.65;;
38089;SDS011;23904;52.322;10.232;2023-09-18T08:36:41;11.32;;;4.97;;
38089;SDS011;23904;52.322;10.232;2023-09-18T08:39:06;10.50;;;4.60;;
38089;SDS011;23904;52.322;10.232;2023-09-18T08:41:32;14.10;;;4.50;;
38089;SDS011;23904;52.322;10.232;2023-09-18T08:44:03;12.48;;;5.65;;
38089;SDS011;23904;52.322;10.232;2023-09-18T08:46:34;12.73;;;5.53;;
38089;SDS011;23904;52.322;10.232;2023-09-18T08:49:00;10.65;;;4.93;;
38089;SDS011;23904;52.322;10.232;2023-09-18T08:51:26;11.38;;;4.25;;
38089;SDS011;23904;52.322;10.232;2023-09-18T08:53:53;7.72;;;4.45;;
38089;SDS011;23904;52.322;10.232;2023-09-18T08:56:20;7.75;;;4.38;;
38089;SDS011;23904;52.322;10.232;2023-09-18T08:58:46;12.30;;;4.90;;
38089;SDS011;23904;52.322;10.232;2023-09-18T09:01:12;10.00;;;4.50;;
38089;SDS011;23904;52.322;10.232;2023-09-18T09:03:38;9.57;;;4.78;;
38089;SDS011;23904;52.322;10.232;2023-09-18T09:06:07;11.57;;;4.50;;
38089;SDS011;23904;52.322;10.232;2023-09-18T09:08:35;11.18;;;4.32;;
38089;SDS011;23904;52.322;10.232;2023-09-18T09:11:02;9.73;;;4.00;;
38089;SDS011;23904;52.322;10.232;2023-09-18T09:13:30;13.73;;;4.43;;
38089;SDS011;23904;52.322;10.232;2023-09-18T09:15:57;14.75;;;5.32;;
38089;SDS011;23904;52.322;10.232;2023-09-18T09:18:25;7.78;;;4.18;;
38089;SDS011;23904;52.322;10.232;2023-09-18T09:23:28;11.82;;;4.78;;
38089;SDS011;23904;52.322;10.232;2023-09-18T09:26:13;16.92;;;4.55;;
38089;SDS011;23904;52.322;10.232;2023-09-18T09:28:44;12.77;;;4.28;;
38089;SDS011;23904;52.322;10.232;2023-09-18T09:31:10;14.43;;;4.60;;
38089;SDS011;23904;52.322;10.232;2023-09-18T09:33:36;19.25;;;4.40;;
38089;SDS011;23904;52.322;10.232;2023-09-18T09:36:06;10.45;;;3.83;;
38089;SDS011;23904;52.322;10.232;2023-09-18T09:38:33;11.88;;;3.63;;
38089;SDS011;23904;52.322;10.232;2023-09-18T09:41:02;10.45;;;4.30;;
38089;SDS011;23904;52.322;10.232;2023-09-18T09:43:34;11.05;;;4.22;;
38089;SDS011;23904;52.322;10.232;2023-09-18T09:46:01;10.50;;;4.07;;
38089;SDS011;23904;52.322;10.232;2023-09-18T09:48:27;9.90;;;4.45;;
38089;SDS011;23904;52.322;10.232;2023-09-18T09:50:57;6.35;;;3.67;;
38089;SDS011;23904;52.322;10.232;2023-09-18T09:53:41;13.80;;;4.43;;
38089;SDS011;23904;52.322;10.232;2023-09-18T09:56:17;14.20;;;4.95;;
38089;SDS011;23904;52.322;10.232;2023-09-18T09:58:59;14.68;;;4.18;;
38089;SDS011;23904;52.322;10.232;2023-09-18T10:01:33;12.95;;;4.20;;
38089;SDS011;23904;52.322;10.232;2023-09-18T10:03:59;13.35;;;4.07;;
38089;SDS011;23904;52.322;10.232;2023-09-18T10:06:32;8.55;;;3.28;;
38089;SDS011;23904;52.322;10.232;2023-09-18T10:09:02;10.38;;;4.35;;
38089;SDS011;23904;52.322;10.232;2023-09-18T10:11:31;10.45;;;3.95;;
38089;SDS011;23904;52.322;10.232;2023-09-18T10:14:04;13.25;;;4.65;;
38089;SDS011;23904;52.322;10.232;2023-09-18T10:16:56;10.90;;;4.13;;
38089;SDS011;23904;52.322;10.232;2023-09-18T10:22:42;14.50;;;3.67;;
38089;SDS011;23904;52.322;10.232;2023-09-18T10:27:47;8.60;;;3.70;;
38089;SDS011;23904;52.322;10.232;2023-09-18T10:30:18;16.10;;;3.70;;
38089;SDS011;23904;52.322;10.232;2023-09-18T10:32:47;13.93;;;4.03;;
38089;SDS011;23904;52.322;10.232;2023-09-18T10:35:15;11.00;;;3.53;;
38089;SDS011;23904;52.322;10.232;2023-09-18T10:37:43;13.95;;;3.88;;
38089;SDS011;23904;52.322;10.232;2023-09-18T10:40:12;8.10;;;3.47;;
38089;SDS011;23904;52.322;10.232;2023-09-18T10:42:38;10.25;;;3.38;;
38089;SDS011;23904;52.322;10.232;2023-09-18T10:45:10;8.52;;;3.58;;
38089;SDS011;23904;52.322;10.232;2023-09-18T10:47:37;11.45;;;4.38;;
38089;SDS011;23904;52.322;10.232;2023-09-18T10:50:06;8.57;;;3.10;;
38089;SDS011;23904;52.322;10.232;2023-09-18T10:52:38;11.20;;;3.75;;
38089;SDS011;23904;52.322;10.232;2023-09-18T10:55:11;10.48;;;3.33;;
38089;SDS011;23904;52.322;10.232;2023-09-18T10:57:37;8.65;;;3.35;;
38089;SDS011;23904;52.322;10.232;2023-09-18T11:00:24;11.70;;;3.50;;
38089;SDS011;23904;52.322;10.232;2023-09-18T11:02:53;14.38;;;3.25;;
38089;SDS011;23904;52.322;10.232;2023-09-18T11:05:45;8.52;;;2.95;;
38089;SDS011;23904;52.322;10.232;2023-09-18T11:08:28;7.75;;;2.58;;
38089;SDS011;23904;52.322;10.232;2023-09-18T11:11:02;8.20;;;2.92;;
38089;SDS011;23904;52.322;10.232;2023-09-18T11:21:31;10.35;;;2.80;;
38089;SDS011;23904;52.322;10.232;2023-09-18T11:24:03;10.18;;;2.70;;
38089;SDS011;23904;52.322;10.232;2023-09-18T11:26:41;8.77;;;2.43;;
38089;SDS011;23904;52.322;10.232;2023-09-18T11:29:10;6.35;;;2.92;;
38089;SDS011;23904;52.322;10.232;2023-09-18T11:31:45;13.52;;;3.55;;
38089;SDS011;23904;52.322;10.232;2023-09-18T11:34:19;8.55;;;3.17;;
38089;SDS011;23904;52.322;10.232;2023-09-18T11:36:47;11.00;;;2.30;;
38089;SDS011;23904;52.322;10.232;2023-09-18T11:39:13;8.85;;;2.30;;
38089;SDS011;23904;52.322;10.232;2023-09-18T11:42:10;9.07;;;2.30;;
38089;SDS011;23904;52.322;10.232;2023-09-18T11:44:43;12.07;;;2.90;;
38089;SDS011;23904;52.322;10.232;2023-09-18T11:47:12;9.65;;;3.50;;
38089;SDS011;23904;52.322;10.232;2023-09-18T11:52:24;12.88;;;3.65;;
38089;SDS011;23904;52.322;10.232;2023-09-18T11:54:57;8.48;;;2.63;;
38089;SDS011;23904;52.322;10.232;2023-09-18T11:57:25;10.38;;;3.20;;
38089;SDS011;23904;52.322;10.232;2023-09-18T11:59:53;10.18;;;3.35;;
38089;SDS011;23904;52.322;10.232;2023-09-18T12:04:59;10.38;;;3.17;;
38089;SDS011;23904;52.322;10.232;2023-09-18T12:07:34;7.95;;;2.47;;
38089;SDS011;23904;52.322;10.232;2023-09-18T12:10:00;8.95;;;2.67;;
38089;SDS011;23904;52.322;10.232;2023-09-18T12:12:31;8.02;;;2.42;;
38089;SDS011;23904;52.322;10.232;2023-09-18T12:14:57;14.80;;;3.42;;
38089;SDS011;23904;52.322;10.232;2023-09-18T12:17:23;11.88;;;3.28;;
38089;SDS011;23904;52.322;10.232;2023-09-18T12:19:52;14.10;;;3.22;;
38089;SDS011;23904;52.322;10.232;2023-09-18T12:22:28;7.65;;;2.92;;
38089;SDS011;23904;52.322;10.232;2023-09-18T12:25:12;10.30;;;3.20;;
38089;SDS011;23904;52.322;10.232;2023-09-18T12:27:45;11.20;;;2.72;;
38089;SDS011;23904;52.322;10.232;2023-09-18T12:30:11;11.43;;;3.08;;
38089;SDS011;23904;52.322;10.232;2023-09-18T12:32:45;12.75;;;2.88;;
38089;SDS011;23904;52.322;10.232;2023-09-18T12:35:13;8.45;;;3.25;;
38089;SDS011;23904;52.322;10.232;2023-09-18T12:37:40;13.82;;;4.10;;
38089;SDS011;23904;52.322;10.232;2023-09-18T12:40:06;8.65;;;3.13;;
38089;SDS011;23904;52.322;10.232;2023-09-18T12:42:46;15.30;;;3.47;;
38089;SDS011;23904;52.322;10.232;2023-09-18T12:45:12;9.30;;;2.47;;
38089;SDS011;23904;52.322;10.232;2023-09-18T12:47:38;8.60;;;2.33;;
38089;SDS011;23904;52.322;10.232;2023-09-18T12:50:05;8.63;;;2.63;;
38089;SDS011;23904;52.322;10.232;2023-09-18T12:52:36;11.65;;;2.90;;
38089;SDS011;23904;52.322;10.232;2023-09-18T12:55:02;14.55;;;3.28;;
38089;SDS011;23904;52.322;10.232;2023-09-18T12:57:30;8.43;;;3.38;;
38089;SDS011;23904;52.322;10.232;2023-09-18T12:59:58;9.63;;;2.42;;
38089;SDS011;23904;52.322;10.232;2023-09-18T13:02:23;7.07;;;2.05;;
38089;SDS011;23904;52.322;10.232;2023-09-18T13:04:53;7.07;;;2.40;;
38089;SDS011;23904;52.322;10.232;2023-09-18T13:07:22;6.25;;;2.13;;
38089;SDS011;23904;52.322;10.232;2023-09-18T13:10:02;9.63;;;2.60;;
38089;SDS011;23904;52.322;10.232;2023-09-18T13:15:24;12.82;;;3.50;;
38089;SDS011;23904;52.322;10.232;2023-09-18T13:17:54;8.48;;;2.25;;
38089;SDS011;23904;52.322;10.232;2023-09-18T13:20:24;7.38;;;1.90;;
38089;SDS011;23904;52.322;10.232;2023-09-18T13:22:54;9.80;;;5.50;;
38089;SDS011;23904;52.322;10.232;2023-09-18T13:25:23;6.07;;;2.42;;
38089;SDS011;23904;52.322;10.232;2023-09-18T13:28:04;7.95;;;2.63;;
38089;SDS011;23904;52.322;10.232;2023-09-18T13:30:33;4.65;;;1.63;;
38089;SDS011;23904;52.322;10.232;2023-09-18T13:33:04;3.67;;;1.88;;
38089;SDS011;23904;52.322;10.232;2023-09-18T13:35:36;3.80;;;1.98;;
38089;SDS011;23904;52.322;10.232;2023-09-18T13:38:07;9.13;;;2.92;;
38089;SDS011;23904;52.322;10.232;2023-09-18T13:40:34;9.40;;;2.75;;
38089;SDS011;23904;52.322;10.232;2023-09-18T13:43:04;6.88;;;2.50;;
38089;SDS011;23904;52.322;10.232;2023-09-18T13:45:32;5.03;;;2.40;;
38089;SDS011;23904;52.322;10.232;2023-09-18T13:48:00;5.32;;;2.30;;
38089;SDS011;23904;52.322;10.232;2023-09-18T13:50:31;6.07;;;1.88;;
38089;SDS011;23904;52.322;10.232;2023-09-18T13:53:00;5.40;;;2.22;;
38089;SDS011;23904;52.322;10.232;2023-09-18T13:55:28;6.47;;;2.03;;
38089;SDS011;23904;52.322;10.232;2023-09-18T13:57:54;7.55;;;1.80;;
38089;SDS011;23904;52.322;10.232;2023-09-18T14:00:21;3.72;;;1.95;;
38089;SDS011;23904;52.322;10.232;2023-09-18T14:02:49;5.53;;;1.88;;
38089;SDS011;23904;52.322;10.232;2023-09-18T14:05:14;7.40;;;2.00;;
38089;SDS011;23904;52.322;10.232;2023-09-18T14:07:41;7.75;;;2.80;;
38089;SDS011;23904;52.322;10.232;2023-09-18T14:10:07;7.25;;;2.20;;
38089;SDS011;23904;52.322;10.232;2023-09-18T14:12:35;6.80;;;2.30;;
38089;SDS011;23904;52.322;10.232;2023-09-18T14:15:04;8.38;;;2.30;;
38089;SDS011;23904;52.322;10.232;2023-09-18T14:17:34;6.60;;;2.42;;
38089;SDS011;23904;52.322;10.232;2023-09-18T14:20:00;8.63;;;2.65;;
38089;SDS011;23904;52.322;10.232;2023-09-18T14:22:31;9.25;;;2.13;;
38089;SDS011;23904;52.322;10.232;2023-09-18T14:24:57;4.05;;;1.95;;
38089;SDS011;23904;52.322;10.232;2023-09-18T14:27:23;9.65;;;4.00;;
38089;SDS011;23904;52.322;10.232;2023-09-18T14:29:49;5.10;;;2.00;;
38089;SDS011;23904;52.322;10.232;2023-09-18T14:32:14;4.10;;;2.10;;
38089;SDS011;23904;52.322;10.232;2023-09-18T14:34:40;7.00;;;2.28;;
38089;SDS011;23904;52.322;10.232;2023-09-18T14:37:07;8.50;;;3.22;;
38089;SDS011;23904;52.322;10.232;2023-09-18T14:39:32;10.55;;;2.85;;
38089;SDS011;23904;52.322;10.232;2023-09-18T14:41:59;12.75;;;3.95;;
38089;SDS011;23904;52.322;10.232;2023-09-18T14:44:25;6.53;;;2.22;;
38089;SDS011;23904;52.322;10.232;2023-09-18T14:46:52;8.32;;;2.33;;
38089;SDS011;23904;52.322;10.232;2023-09-18T14:49:18;6.45;;;2.40;;
38089;SDS011;23904;52.322;10.232;2023-09-18T14:51:44;10.63;;;2.53;;
38089;SDS011;23904;52.322;10.232;2023-09-18T14:54:10;8.88;;;2.47;;
38089;SDS011;23904;52.322;10.232;2023-09-18T14:56:36;7.93;;;2.50;;
38089;SDS011;23904;52.322;10.232;2023-09-18T14:59:02;7.95;;;2.42;;
38089;SDS011;23904;52.322;10.232;2023-09-18T15:01:28;5.28;;;2.15;;